createdAt,value
2023-03-31T00:01:04.604Z,11.70
2023-03-31T00:03:39.154Z,11.70
2023-03-31T00:06:06.575Z,11.70
2023-03-31T00:08:37.336Z,11.70
2023-03-31T00:11:05.270Z,11.70
2023-03-31T00:13:32.270Z,11.70
2023-03-31T00:16:03.895Z,11.70
2023-03-31T00:18:37.788Z,11.60
2023-03-31T00:21:09.152Z,11.60
2023-03-31T00:23:36.067Z,11.50
2023-03-31T00:26:10.413Z,11.50
2023-03-31T00:28:39.132Z,11.50
2023-03-31T00:31:06.243Z,11.50
2023-03-31T00:33:33.272Z,11.40
2023-03-31T00:36:02.422Z,11.40
2023-03-31T00:38:30.387Z,11.40
2023-03-31T00:40:57.619Z,11.40
2023-03-31T00:43:29.568Z,11.40
2023-03-31T00:46:05.894Z,11.30
2023-03-31T00:48:34.429Z,11.30
2023-03-31T00:51:04.795Z,11.30
2023-03-31T00:53:32.478Z,11.30
2023-03-31T00:56:02.359Z,11.30
2023-03-31T00:58:29.388Z,11.30
2023-03-31T01:00:57.770Z,11.30
2023-03-31T01:03:25.238Z,11.30
2023-03-31T01:05:56.717Z,11.30
2023-03-31T01:08:25.891Z,11.30
2023-03-31T01:10:54.795Z,11.30
2023-03-31T01:13:22.820Z,11.30
2023-03-31T01:15:49.724Z,11.30
2023-03-31T01:18:21.223Z,11.30
2023-03-31T01:20:57.464Z,11.30
2023-03-31T01:24:00.075Z,11.30
2023-03-31T01:26:50.267Z,11.40
2023-03-31T01:29:34.920Z,11.40
2023-03-31T01:32:02.294Z,11.30
2023-03-31T01:34:38.514Z,11.30
2023-03-31T01:37:18.017Z,11.30
2023-03-31T01:40:09.779Z,11.30
2023-03-31T01:42:36.773Z,11.30
2023-03-31T01:45:12.399Z,11.30
2023-03-31T01:47:46.076Z,11.30
2023-03-31T01:50:13.021Z,11.30
2023-03-31T01:52:44.087Z,11.30
2023-03-31T01:55:29.869Z,11.30
2023-03-31T01:58:07.393Z,11.30
2023-03-31T02:00:37.167Z,11.30
2023-03-31T02:03:07.904Z,11.30
2023-03-31T02:05:40.778Z,11.30
2023-03-31T02:08:12.895Z,11.30
2023-03-31T02:10:41.284Z,11.30
2023-03-31T02:13:09.113Z,11.30
2023-03-31T02:15:39.019Z,11.30
2023-03-31T02:18:11.387Z,11.30
2023-03-31T02:20:43.832Z,11.30
2023-03-31T02:23:12.119Z,11.30
2023-03-31T02:25:42.214Z,11.30
2023-03-31T02:28:12.453Z,11.30
2023-03-31T02:30:45.293Z,11.30
2023-03-31T02:33:12.108Z,11.20
2023-03-31T02:35:39.162Z,11.20
2023-03-31T02:38:06.883Z,11.20
2023-03-31T02:40:33.898Z,11.20
2023-03-31T02:43:01.214Z,11.20
2023-03-31T02:45:49.437Z,11.20
2023-03-31T02:48:22.069Z,11.20
2023-03-31T02:50:53.568Z,11.10
2023-03-31T02:53:43.823Z,11.20
2023-03-31T02:56:26.327Z,11.10
2023-03-31T02:59:04.123Z,11.20
2023-03-31T03:01:49.828Z,11.20
2023-03-31T03:04:20.041Z,11.20
2023-03-31T03:07:05.863Z,11.20
2023-03-31T03:09:42.465Z,11.20
2023-03-31T03:12:28.438Z,11.20
2023-03-31T03:15:05.970Z,11.10
2023-03-31T03:17:37.175Z,11.10
2023-03-31T03:20:08.299Z,11.10
2023-03-31T03:22:35.929Z,11.10
2023-03-31T03:25:05.222Z,11.10
2023-03-31T03:27:32.814Z,11.10
2023-03-31T03:29:59.740Z,11.10
2023-03-31T03:32:26.682Z,11.10
2023-03-31T03:34:53.558Z,11.10
2023-03-31T03:37:20.487Z,11.10
2023-03-31T03:39:47.332Z,11.10
2023-03-31T03:42:14.166Z,11.00
2023-03-31T03:44:41.163Z,11.00
2023-03-31T03:47:08.115Z,11.00
2023-03-31T03:49:34.965Z,11.00
2023-03-31T03:52:01.770Z,11.00
2023-03-31T03:54:28.588Z,11.00
2023-03-31T03:56:55.679Z,11.00
2023-03-31T03:59:22.679Z,11.00
2023-03-31T04:01:49.530Z,11.00
2023-03-31T04:04:16.419Z,11.00
2023-03-31T04:06:43.430Z,11.00
2023-03-31T04:09:10.692Z,11.00
2023-03-31T04:11:37.530Z,11.00
2023-03-31T04:14:04.343Z,11.00
2023-03-31T04:16:32.410Z,11.00
2023-03-31T04:18:59.748Z,11.00
2023-03-31T04:21:26.630Z,11.00
2023-03-31T04:24:01.982Z,11.00
2023-03-31T04:26:43.162Z,11.00
2023-03-31T04:29:12.800Z,11.00
2023-03-31T04:31:42.798Z,11.00
2023-03-31T04:34:13.587Z,11.00
2023-03-31T04:36:42.794Z,11.00
2023-03-31T04:39:12.752Z,11.00
2023-03-31T04:41:39.551Z,10.90
2023-03-31T04:44:06.419Z,10.90
2023-03-31T04:46:33.976Z,10.90
2023-03-31T04:49:01.465Z,11.00
2023-03-31T04:51:28.625Z,11.00
2023-03-31T04:53:55.615Z,11.00
2023-03-31T04:56:22.871Z,11.00
2023-03-31T04:58:49.703Z,11.00
2023-03-31T05:01:20.944Z,10.90
2023-03-31T05:03:48.281Z,11.00
2023-03-31T05:06:15.813Z,10.90
2023-03-31T05:08:42.941Z,11.00
2023-03-31T05:11:09.835Z,11.00
2023-03-31T05:13:37.759Z,11.00
2023-03-31T05:16:33.113Z,11.00
2023-03-31T05:19:01.714Z,10.90
2023-03-31T05:21:35.168Z,11.00
2023-03-31T05:24:05.292Z,10.90
2023-03-31T05:26:33.308Z,10.90
2023-03-31T05:29:04.198Z,11.00
2023-03-31T05:31:34.243Z,11.00
2023-03-31T05:34:01.181Z,10.90
2023-03-31T05:36:28.148Z,11.00
2023-03-31T05:38:55.220Z,11.00
2023-03-31T05:41:22.286Z,11.00
2023-03-31T05:43:49.264Z,11.00
2023-03-31T05:46:16.168Z,11.00
2023-03-31T05:48:43.088Z,11.00
2023-03-31T05:51:09.866Z,11.00
2023-03-31T05:53:36.672Z,11.00
2023-03-31T05:56:05.691Z,11.00
2023-03-31T05:58:34.026Z,11.00
2023-03-31T06:01:01.933Z,11.00
2023-03-31T06:03:28.827Z,11.00
2023-03-31T06:05:55.760Z,11.00
2023-03-31T06:08:22.654Z,11.00
2023-03-31T06:10:49.427Z,11.10
2023-03-31T06:13:17.464Z,11.10
2023-03-31T06:15:55.697Z,11.10
2023-03-31T06:18:22.758Z,11.10
2023-03-31T06:21:00.185Z,11.10
2023-03-31T06:23:29.301Z,11.10
2023-03-31T06:25:59.373Z,11.20
2023-03-31T06:28:31.585Z,11.20
2023-03-31T06:31:02.223Z,11.20
2023-03-31T06:33:29.221Z,11.30
2023-03-31T06:35:56.817Z,11.30
2023-03-31T06:38:28.175Z,11.30
2023-03-31T06:40:55.304Z,11.20
2023-03-31T06:43:23.341Z,11.30
2023-03-31T06:45:54.797Z,11.20
2023-03-31T06:48:23.394Z,11.30
2023-03-31T06:50:50.368Z,11.30
2023-03-31T06:53:17.154Z,11.30
2023-03-31T06:55:43.911Z,11.40
2023-03-31T06:58:11.917Z,11.40
2023-03-31T07:00:39.237Z,11.40
2023-03-31T07:03:06.750Z,11.40
2023-03-31T07:05:33.658Z,11.40
2023-03-31T07:08:01.842Z,11.40
2023-03-31T07:10:29.645Z,11.40
2023-03-31T07:12:57.794Z,11.40
2023-03-31T07:15:25.292Z,11.50
2023-03-31T07:17:54.027Z,11.40
2023-03-31T07:20:21.231Z,11.40
2023-03-31T07:22:48.691Z,11.40
2023-03-31T07:25:16.927Z,11.50
2023-03-31T07:27:44.223Z,11.50
2023-03-31T07:30:15.888Z,11.50
2023-03-31T07:32:43.032Z,11.60
2023-03-31T07:35:11.657Z,11.60
2023-03-31T07:37:39.282Z,11.60
2023-03-31T07:40:09.581Z,11.60
2023-03-31T07:42:36.416Z,11.60
2023-03-31T07:45:06.156Z,11.60
2023-03-31T07:47:33.020Z,11.60
2023-03-31T07:50:00.022Z,11.60
2023-03-31T07:52:26.851Z,11.60
2023-03-31T07:54:54.086Z,11.60
2023-03-31T07:57:25.853Z,11.60
2023-03-31T07:59:52.748Z,11.60
2023-03-31T08:02:24.841Z,11.50
2023-03-31T08:04:51.838Z,11.60
2023-03-31T08:07:18.640Z,11.60
2023-03-31T08:09:46.526Z,11.60
2023-03-31T08:12:15.615Z,11.60
2023-03-31T08:14:42.519Z,11.60
2023-03-31T08:17:09.817Z,11.60
2023-03-31T08:19:36.813Z,11.60
2023-03-31T08:22:03.594Z,11.60
2023-03-31T08:24:30.432Z,11.70
2023-03-31T08:26:57.282Z,11.70
2023-03-31T08:29:24.054Z,11.70
2023-03-31T08:31:51.010Z,11.70
2023-03-31T08:34:17.876Z,11.70
2023-03-31T08:36:44.608Z,11.80
2023-03-31T08:39:11.740Z,11.80
2023-03-31T08:41:42.368Z,11.80
2023-03-31T08:44:12.165Z,11.80
2023-03-31T08:46:41.472Z,11.80
2023-03-31T08:49:14.349Z,11.70
2023-03-31T08:51:42.160Z,11.70
2023-03-31T08:54:17.752Z,11.70
2023-03-31T08:56:47.291Z,11.70
2023-03-31T08:59:17.943Z,11.70
2023-03-31T09:01:55.611Z,11.70
2023-03-31T09:04:35.245Z,11.70
2023-03-31T09:07:12.115Z,11.70
2023-03-31T09:09:56.367Z,11.70
2023-03-31T09:12:31.970Z,11.70
2023-03-31T09:15:05.196Z,11.70
2023-03-31T09:17:41.138Z,11.70
2023-03-31T09:20:09.301Z,11.70
2023-03-31T09:22:39.836Z,11.80
2023-03-31T09:25:09.771Z,11.80
2023-03-31T09:27:37.865Z,11.80
2023-03-31T09:30:10.674Z,11.90
2023-03-31T09:32:38.716Z,11.90
2023-03-31T09:35:22.866Z,11.90
2023-03-31T09:37:50.619Z,11.90
2023-03-31T09:40:27.737Z,12.00
2023-03-31T09:42:58.060Z,12.00
2023-03-31T09:46:08.451Z,12.10
2023-03-31T09:48:37.203Z,12.10
2023-03-31T09:51:07.918Z,12.10
2023-03-31T09:53:38.465Z,12.10
2023-03-31T09:56:08.397Z,12.10
2023-03-31T09:58:42.931Z,12.20
2023-03-31T10:01:11.615Z,12.10
2023-03-31T10:03:54.830Z,12.20
2023-03-31T10:06:22.649Z,12.20
2023-03-31T10:09:01.343Z,12.20
2023-03-31T10:11:28.276Z,12.20
2023-03-31T10:14:01.429Z,12.20
2023-03-31T10:16:31.445Z,12.20
2023-03-31T10:19:17.202Z,12.20
2023-03-31T10:21:46.084Z,12.20
2023-03-31T10:24:17.886Z,12.20
2023-03-31T10:26:50.237Z,12.20
2023-03-31T10:29:22.053Z,12.20
2023-03-31T10:31:49.114Z,12.20
2023-03-31T10:34:17.229Z,12.20
2023-03-31T10:36:48.647Z,12.30
2023-03-31T10:39:17.248Z,12.40
2023-03-31T10:42:15.584Z,12.40
2023-03-31T10:44:42.473Z,12.40
2023-03-31T10:47:15.473Z,12.40
2023-03-31T10:49:43.619Z,12.40
2023-03-31T10:52:27.310Z,12.40
2023-03-31T10:55:01.577Z,12.50
2023-03-31T10:57:38.699Z,12.50
2023-03-31T11:00:13.693Z,12.50
2023-03-31T11:02:59.533Z,12.60
2023-03-31T11:05:26.370Z,12.60
2023-03-31T11:07:59.259Z,12.70
2023-03-31T11:10:37.138Z,12.70
2023-03-31T11:13:22.825Z,12.70
2023-03-31T11:15:49.679Z,12.70
2023-03-31T11:18:26.958Z,12.70
2023-03-31T11:21:20.413Z,12.70
2023-03-31T11:23:58.980Z,12.70
2023-03-31T11:30:17.876Z,12.70
2023-03-31T11:32:55.183Z,12.70
2023-03-31T11:35:25.767Z,12.60
2023-03-31T11:38:01.772Z,12.60
2023-03-31T11:40:47.377Z,12.60
2023-03-31T11:43:19.535Z,12.50
2023-03-31T11:45:50.904Z,12.50
2023-03-31T11:48:39.945Z,12.50
2023-03-31T11:51:25.758Z,12.40
2023-03-31T11:53:53.778Z,12.50
2023-03-31T11:56:22.754Z,12.40
2023-03-31T11:58:53.351Z,12.40
2023-03-31T12:01:20.238Z,12.40
2023-03-31T12:04:02.037Z,12.40
2023-03-31T12:06:30.746Z,12.40
2023-03-31T12:08:57.637Z,12.40
2023-03-31T12:11:43.367Z,12.40
2023-03-31T12:14:21.195Z,12.40
2023-03-31T12:16:51.680Z,12.40
2023-03-31T12:19:27.910Z,12.40
2023-03-31T12:22:18.478Z,12.40
2023-03-31T12:24:47.142Z,12.40
2023-03-31T12:27:23.274Z,12.30
2023-03-31T12:30:02.341Z,12.30
2023-03-31T12:32:33.675Z,12.30
2023-03-31T12:35:16.502Z,12.30
2023-03-31T12:38:06.980Z,12.30
2023-03-31T12:40:46.249Z,12.30
2023-03-31T12:43:13.063Z,12.30
2023-03-31T12:45:43.972Z,12.30
2023-03-31T12:48:29.360Z,12.30
2023-03-31T12:51:02.474Z,12.30
2023-03-31T12:53:30.379Z,12.30
2023-03-31T12:55:58.834Z,12.30
2023-03-31T12:58:37.508Z,12.40
2023-03-31T13:01:16.670Z,12.40
2023-03-31T13:03:46.629Z,12.40
2023-03-31T13:06:25.589Z,12.50
2023-03-31T13:08:56.636Z,12.60
2023-03-31T13:11:33.906Z,12.60
2023-03-31T13:14:03.301Z,12.60
2023-03-31T13:16:31.009Z,12.60
2023-03-31T13:18:57.932Z,12.70
2023-03-31T13:21:25.448Z,12.70
2023-03-31T13:23:53.554Z,12.80
2023-03-31T13:26:32.604Z,12.80
2023-03-31T13:29:14.723Z,12.80
2023-03-31T13:32:00.479Z,12.80
2023-03-31T13:34:29.309Z,12.90
2023-03-31T13:37:04.020Z,12.90
2023-03-31T13:39:37.747Z,12.90
2023-03-31T13:42:23.678Z,13.00
2023-03-31T13:44:56.709Z,12.90
2023-03-31T13:47:26.801Z,13.00
2023-03-31T13:49:56.172Z,13.00
2023-03-31T13:52:41.926Z,13.00
2023-03-31T13:55:35.284Z,13.00
2023-03-31T13:58:19.916Z,13.00
2023-03-31T14:01:17.129Z,13.00
2023-03-31T14:04:11.350Z,13.00
2023-03-31T14:06:40.070Z,13.00
2023-03-31T14:09:09.474Z,13.00
2023-03-31T14:11:36.525Z,13.00
2023-03-31T14:14:16.763Z,12.90
2023-03-31T14:16:51.185Z,12.90
2023-03-31T14:19:35.433Z,12.90
2023-03-31T14:22:08.405Z,12.90
2023-03-31T14:24:38.779Z,13.00
2023-03-31T14:27:08.678Z,13.10
2023-03-31T14:29:35.513Z,13.10
2023-03-31T14:32:24.667Z,13.20
2023-03-31T14:35:13.387Z,13.20
2023-03-31T14:37:40.502Z,13.30
2023-03-31T14:40:13.258Z,13.30
2023-03-31T14:42:40.419Z,13.30
2023-03-31T14:45:17.173Z,13.40
2023-03-31T14:47:53.095Z,13.40
2023-03-31T14:50:20.252Z,13.40
2023-03-31T14:52:48.922Z,13.30
2023-03-31T14:55:16.696Z,13.30
2023-03-31T14:57:44.928Z,13.30
2023-03-31T15:00:14.357Z,13.20
2023-03-31T15:02:42.484Z,13.10
2023-03-31T15:05:10.737Z,13.10
2023-03-31T15:07:41.093Z,13.00
2023-03-31T15:10:08.306Z,13.00
2023-03-31T15:12:38.393Z,12.90
2023-03-31T15:15:06.432Z,12.90
2023-03-31T15:17:38.067Z,12.90
2023-03-31T15:20:24.049Z,12.90
2023-03-31T15:22:51.462Z,12.80
2023-03-31T15:25:18.873Z,12.80
2023-03-31T15:27:55.736Z,12.90
2023-03-31T15:30:24.072Z,12.80
2023-03-31T15:32:56.674Z,12.80
2023-03-31T15:35:32.982Z,12.90
2023-03-31T15:38:01.261Z,12.90
2023-03-31T15:40:29.650Z,12.90
2023-03-31T15:43:07.065Z,12.90
2023-03-31T15:45:50.322Z,12.90
2023-03-31T15:48:20.030Z,12.80
2023-03-31T15:50:47.264Z,12.90
2023-03-31T15:53:27.496Z,12.90
2023-03-31T15:55:55.967Z,12.80
2023-03-31T15:58:25.814Z,12.80
2023-03-31T16:00:53.314Z,12.80
2023-03-31T16:03:26.855Z,12.70
2023-03-31T16:05:54.940Z,12.70
2023-03-31T16:08:26.952Z,12.70
2023-03-31T16:11:19.886Z,12.60
2023-03-31T16:13:49.244Z,12.70
2023-03-31T16:16:19.004Z,12.70
2023-03-31T16:18:48.237Z,12.60
2023-03-31T16:21:20.410Z,12.60
2023-03-31T16:23:50.824Z,12.60
2023-03-31T16:26:21.449Z,12.60
2023-03-31T16:28:53.717Z,12.60
2023-03-31T16:31:40.864Z,12.60
2023-03-31T16:34:08.957Z,12.50
2023-03-31T16:36:38.955Z,12.50
2023-03-31T16:39:09.112Z,12.50
2023-03-31T16:41:39.045Z,12.50
2023-03-31T16:44:07.073Z,12.50
2023-03-31T16:46:42.097Z,12.50
2023-03-31T16:49:37.901Z,12.50
2023-03-31T16:52:06.499Z,12.50
2023-03-31T16:54:33.290Z,12.50
2023-03-31T16:57:05.025Z,12.50
2023-03-31T16:59:31.957Z,12.40
2023-03-31T17:01:59.890Z,12.40
2023-03-31T17:04:26.725Z,12.40
2023-03-31T17:06:53.772Z,12.40
2023-03-31T17:09:20.708Z,12.40
2023-03-31T17:11:49.810Z,12.40
2023-03-31T17:14:22.087Z,12.40
2023-03-31T17:16:52.768Z,12.40
2023-03-31T17:19:19.597Z,12.40
2023-03-31T17:21:46.704Z,12.40
2023-03-31T17:24:16.936Z,12.40
2023-03-31T17:26:43.681Z,12.30
2023-03-31T17:29:10.767Z,12.30
2023-03-31T17:31:39.626Z,12.30
2023-03-31T17:34:11.380Z,12.30
2023-03-31T17:36:39.241Z,12.30
2023-03-31T17:39:06.113Z,12.30
2023-03-31T17:42:02.780Z,12.20
2023-03-31T17:44:58.842Z,12.20
2023-03-31T17:47:32.633Z,12.20
2023-03-31T17:49:59.796Z,12.20
2023-03-31T17:52:33.367Z,12.20
2023-03-31T17:55:00.194Z,12.10
2023-03-31T17:57:27.492Z,12.10
2023-03-31T17:59:54.709Z,12.10
2023-03-31T18:02:21.573Z,12.10
2023-03-31T18:04:49.027Z,12.10
2023-03-31T18:07:18.330Z,12.10
2023-03-31T18:09:45.512Z,12.00
2023-03-31T18:12:13.389Z,12.00
2023-03-31T18:14:40.465Z,12.00
2023-03-31T18:17:07.376Z,12.00
2023-03-31T18:19:34.203Z,12.00
2023-03-31T18:22:03.012Z,11.90
2023-03-31T18:24:58.091Z,11.90
2023-03-31T18:27:26.024Z,11.90
2023-03-31T18:30:06.106Z,11.90
2023-03-31T18:32:34.226Z,11.90
2023-03-31T18:35:08.869Z,11.90
2023-03-31T18:38:06.050Z,11.90
2023-03-31T18:40:32.996Z,11.90
2023-03-31T18:43:11.769Z,11.90
2023-03-31T18:45:43.108Z,11.90
2023-03-31T18:48:30.491Z,11.80
2023-03-31T18:50:57.587Z,11.90
2023-03-31T18:53:30.255Z,11.80
2023-03-31T18:55:58.688Z,11.80
2023-03-31T18:58:26.542Z,11.80
2023-03-31T19:01:03.798Z,11.80
2023-03-31T19:03:30.849Z,11.80
2023-03-31T19:06:05.476Z,11.80
2023-03-31T19:08:38.738Z,11.80
2023-03-31T19:11:06.801Z,11.80
2023-03-31T19:13:34.122Z,11.70
2023-03-31T19:16:04.507Z,11.70
2023-03-31T19:18:31.928Z,11.70
2023-03-31T19:20:59.259Z,11.70
2023-03-31T19:23:26.539Z,11.60
2023-03-31T19:26:00.591Z,11.70
2023-03-31T19:28:27.785Z,11.60
2023-03-31T19:31:02.746Z,11.60
2023-03-31T19:33:29.577Z,11.60
2023-03-31T19:35:56.439Z,11.60
2023-03-31T19:38:25.530Z,11.60
2023-03-31T19:41:15.142Z,11.60
2023-03-31T19:43:42.050Z,11.60
2023-03-31T19:46:16.270Z,11.60
2023-03-31T19:48:45.299Z,11.60
2023-03-31T19:51:19.226Z,11.60
2023-03-31T19:53:48.111Z,11.60
2023-03-31T19:56:55.853Z,11.50
2023-03-31T20:00:31.104Z,11.50
2023-03-31T20:03:42.245Z,11.50
2023-03-31T20:10:14.513Z,11.50
2023-03-31T20:13:12.407Z,11.50
2023-03-31T20:15:43.990Z,11.50
2023-03-31T20:21:59.498Z,11.50
2023-03-31T20:24:30.608Z,11.50
2023-03-31T20:26:59.143Z,11.50
2023-03-31T20:29:52.917Z,11.50
2023-03-31T20:32:22.998Z,11.50
2023-03-31T20:34:52.152Z,11.40
2023-03-31T20:45:20.473Z,11.40
2023-03-31T20:51:27.103Z,11.40
2023-03-31T20:54:20.823Z,11.40
2023-03-31T20:57:16.734Z,11.40
2023-03-31T21:03:46.738Z,11.40
2023-03-31T21:06:16.041Z,11.50
2023-03-31T21:09:28.751Z,11.50
2023-03-31T21:12:21.289Z,11.50
2023-03-31T21:15:22.353Z,11.40
2023-03-31T21:17:53.256Z,11.40
2023-03-31T21:20:21.364Z,11.40
2023-03-31T21:22:57.559Z,11.40
2023-03-31T21:25:32.576Z,11.40
2023-03-31T21:28:01.887Z,11.40
2023-03-31T21:30:34.080Z,11.40
2023-03-31T21:33:14.661Z,11.40
2023-03-31T21:35:41.813Z,11.40
2023-03-31T21:38:33.566Z,11.40
2023-03-31T21:41:18.704Z,11.40
2023-03-31T21:44:02.672Z,11.40
2023-03-31T21:50:06.077Z,11.40
2023-03-31T21:52:33.382Z,11.30
2023-03-31T21:55:00.223Z,11.30
2023-03-31T22:00:15.889Z,11.30
2023-03-31T22:02:43.685Z,11.30
2023-03-31T22:05:11.359Z,11.30
2023-03-31T22:07:41.344Z,11.30
2023-03-31T22:10:09.621Z,11.30
2023-03-31T22:12:36.697Z,11.30
2023-03-31T22:15:03.688Z,11.30
2023-03-31T22:17:30.741Z,11.30
2023-03-31T22:19:57.767Z,11.20
2023-03-31T22:22:25.497Z,11.20
2023-03-31T22:24:52.475Z,11.20
2023-03-31T22:27:20.506Z,11.20
2023-03-31T22:29:47.837Z,11.20
2023-03-31T22:32:19.861Z,11.20
2023-03-31T22:34:47.234Z,11.20
2023-03-31T22:37:14.354Z,11.20
2023-03-31T22:39:46.861Z,11.20
2023-03-31T22:42:25.279Z,11.20
2023-03-31T22:45:05.044Z,11.20
2023-03-31T22:47:33.189Z,11.20
2023-03-31T22:50:30.545Z,11.20
2023-03-31T22:53:05.971Z,11.10
2023-03-31T22:55:33.618Z,11.10
2023-03-31T22:58:00.694Z,11.10
2023-03-31T23:00:29.801Z,11.10
2023-03-31T23:02:57.222Z,11.20
2023-03-31T23:05:28.983Z,11.10
2023-03-31T23:07:59.103Z,11.10
2023-03-31T23:10:26.263Z,11.10
2023-03-31T23:12:53.410Z,11.10
2023-03-31T23:15:51.477Z,11.10
2023-03-31T23:18:19.903Z,11.10
2023-03-31T23:20:56.363Z,11.20
2023-03-31T23:23:24.436Z,11.10
2023-03-31T23:25:56.693Z,11.10
2023-03-31T23:28:23.894Z,11.10
2023-03-31T23:31:07.390Z,11.10
2023-03-31T23:33:34.240Z,11.10
2023-03-31T23:36:03.260Z,11.10
2023-03-31T23:38:31.303Z,11.10
2023-03-31T23:40:58.655Z,11.10
2023-03-31T23:43:25.822Z,11.00
2023-03-31T23:45:58.954Z,11.00
2023-03-31T23:48:30.500Z,11.00
2023-03-31T23:51:06.795Z,11.10
2023-03-31T23:53:33.873Z,11.10
2023-03-31T23:56:03.567Z,11.00
2023-03-31T23:58:30.983Z,11.00
